createdAt,value
2023-08-31T00:01:29.603Z,97140.63
2023-08-31T00:04:32.280Z,97139.09
2023-08-31T00:07:34.820Z,97148.75
2023-08-31T00:10:37.660Z,97153.88
2023-08-31T00:13:40.428Z,97153.06
2023-08-31T00:16:43.047Z,97148.56
2023-08-31T00:19:46.370Z,97158.16
2023-08-31T00:22:49.663Z,97164.09
2023-08-31T00:25:54.163Z,97160.38
2023-08-31T00:28:56.666Z,97161.47
2023-08-31T00:31:59.222Z,97169.28
2023-08-31T00:35:02.026Z,97166.66
2023-08-31T00:38:06.033Z,97151.59
2023-08-31T00:41:08.789Z,97163.38
2023-08-31T00:44:11.224Z,97160.19
2023-08-31T00:47:15.383Z,97165.06
2023-08-31T00:50:18.285Z,97166.72
2023-08-31T00:53:21.005Z,97172.38
2023-08-31T00:56:23.635Z,97178.94
2023-08-31T00:59:26.190Z,97176.00
2023-08-31T01:03:02.748Z,97177.16
2023-08-31T01:06:36.039Z,97188.19
2023-08-31T01:09:59.463Z,97179.63
2023-08-31T01:13:05.570Z,97184.22
2023-08-31T01:16:09.700Z,97198.75
2023-08-31T01:19:36.068Z,97191.84
2023-08-31T01:22:59.993Z,97181.75
2023-08-31T01:26:03.307Z,97191.78
2023-08-31T01:29:05.695Z,97191.31
2023-08-31T01:32:08.855Z,97183.81
2023-08-31T01:35:20.546Z,97187.25
2023-08-31T01:38:30.698Z,97190.28
2023-08-31T01:41:37.210Z,97193.53
2023-08-31T01:44:40.217Z,97163.34
2023-08-31T01:47:46.506Z,97190.34
2023-08-31T01:50:49.068Z,97192.00
2023-08-31T01:53:51.636Z,97197.38
2023-08-31T01:56:54.508Z,97194.75
2023-08-31T01:59:57.106Z,97196.91
2023-08-31T02:02:59.716Z,97196.69
2023-08-31T02:06:02.087Z,97193.22
2023-08-31T02:09:04.716Z,97175.31
2023-08-31T02:12:07.260Z,97200.59
2023-08-31T02:15:10.479Z,97196.28
2023-08-31T02:18:13.083Z,97216.91
2023-08-31T02:21:15.380Z,97206.97
2023-08-31T02:24:18.121Z,97204.03
2023-08-31T02:27:20.468Z,97198.38
2023-08-31T02:30:24.945Z,97205.13
2023-08-31T02:33:27.375Z,97216.13
2023-08-31T02:36:29.763Z,97206.75
2023-08-31T02:39:32.150Z,97214.56
2023-08-31T02:42:34.632Z,97205.50
2023-08-31T02:45:37.429Z,97198.06
2023-08-31T02:48:40.704Z,97225.59
2023-08-31T02:51:44.369Z,97221.03
2023-08-31T02:54:46.910Z,97223.69
2023-08-31T02:57:49.267Z,97222.59
2023-08-31T03:00:51.917Z,97221.81
2023-08-31T03:03:54.352Z,97226.88
2023-08-31T03:06:58.136Z,97214.34
2023-08-31T03:10:01.110Z,97218.63
2023-08-31T03:13:05.510Z,97218.38
2023-08-31T03:16:08.887Z,97220.03
2023-08-31T03:19:11.266Z,97203.94
2023-08-31T03:22:13.661Z,97206.09
2023-08-31T03:25:17.609Z,97222.34
2023-08-31T03:28:21.773Z,97201.91
2023-08-31T03:31:24.227Z,97217.13
2023-08-31T03:34:31.722Z,97202.94
2023-08-31T03:37:35.167Z,97222.75
2023-08-31T03:40:37.629Z,97218.00
2023-08-31T03:43:41.756Z,97230.41
2023-08-31T03:46:44.914Z,97227.28
2023-08-31T03:49:47.420Z,97227.06
2023-08-31T03:52:51.257Z,97228.97
2023-08-31T03:55:53.623Z,97230.03
2023-08-31T03:58:56.503Z,97236.53
2023-08-31T04:01:58.985Z,97240.56
2023-08-31T04:05:06.750Z,97241.97
2023-08-31T04:08:09.258Z,97238.50
2023-08-31T04:11:11.665Z,97242.63
2023-08-31T04:14:14.063Z,97254.91
2023-08-31T04:17:16.596Z,97242.19
2023-08-31T04:20:19.543Z,97216.81
2023-08-31T04:23:22.641Z,97239.72
2023-08-31T04:26:25.703Z,97251.22
2023-08-31T04:29:28.083Z,97250.69
2023-08-31T04:32:30.971Z,97262.06
2023-08-31T04:35:33.317Z,97264.75
2023-08-31T04:38:36.051Z,97267.19
2023-08-31T04:41:38.382Z,97268.53
2023-08-31T04:44:40.853Z,97268.22
2023-08-31T04:47:43.802Z,97267.56
2023-08-31T04:50:46.157Z,97274.56
2023-08-31T04:53:49.740Z,97268.88
2023-08-31T04:56:52.351Z,97279.00
2023-08-31T04:59:54.690Z,97275.47
2023-08-31T05:02:57.839Z,97280.53
2023-08-31T05:06:00.412Z,97282.41
2023-08-31T05:09:02.972Z,97285.53
2023-08-31T05:12:05.824Z,97284.56
2023-08-31T05:15:08.996Z,97290.25
2023-08-31T05:18:11.739Z,97296.75
2023-08-31T05:21:14.130Z,97305.56
2023-08-31T05:24:16.683Z,97302.09
2023-08-31T05:27:19.685Z,97309.75
2023-08-31T05:30:22.495Z,97307.41
2023-08-31T05:33:26.896Z,97299.69
2023-08-31T05:36:29.325Z,97308.44
2023-08-31T05:39:32.113Z,97283.59
2023-08-31T05:42:34.690Z,97309.41
2023-08-31T05:45:37.261Z,97278.63
2023-08-31T05:48:39.801Z,97304.22
2023-08-31T05:51:42.239Z,97310.34
2023-08-31T05:54:44.789Z,97307.75
2023-08-31T05:57:47.147Z,97324.91
2023-08-31T06:00:49.575Z,97322.47
2023-08-31T06:03:52.169Z,97308.78
2023-08-31T06:06:55.470Z,97306.91
2023-08-31T06:09:58.474Z,97322.31
2023-08-31T06:13:00.922Z,97333.56
2023-08-31T06:16:03.575Z,97315.53
2023-08-31T06:19:06.538Z,97328.38
2023-08-31T06:22:09.227Z,97330.75
2023-08-31T06:25:12.640Z,97334.72
2023-08-31T06:28:15.126Z,97329.34
2023-08-31T06:31:17.492Z,97337.06
2023-08-31T06:34:19.956Z,97336.56
2023-08-31T06:37:22.370Z,97344.38
2023-08-31T06:40:25.934Z,97345.75
2023-08-31T06:43:28.323Z,97343.88
2023-08-31T06:46:30.833Z,97350.84
2023-08-31T06:49:34.579Z,97331.63
2023-08-31T06:52:38.294Z,97357.56
2023-08-31T06:59:04.590Z,97336.97
2023-08-31T07:02:07.362Z,97354.84
2023-08-31T07:05:13.218Z,97353.47
2023-08-31T07:08:15.729Z,97370.63
2023-08-31T07:11:20.418Z,97371.63
2023-08-31T07:14:23.206Z,97385.31
2023-08-31T07:17:25.704Z,97390.44
2023-08-31T07:20:28.446Z,97390.63
2023-08-31T07:23:30.805Z,97386.84
2023-08-31T07:26:33.612Z,97395.06
2023-08-31T07:29:36.014Z,97396.63
2023-08-31T07:32:39.149Z,97405.53
2023-08-31T07:35:41.839Z,97378.91
2023-08-31T07:38:44.297Z,97397.59
2023-08-31T07:41:46.862Z,97412.91
2023-08-31T07:44:49.499Z,97417.41
2023-08-31T07:47:52.068Z,97421.44
2023-08-31T07:50:54.527Z,97433.81
2023-08-31T07:53:57.129Z,97431.13
2023-08-31T07:56:59.441Z,97421.38
2023-08-31T08:00:05.740Z,97425.38
2023-08-31T08:03:15.401Z,97437.41
2023-08-31T08:06:19.186Z,97431.91
2023-08-31T08:09:21.502Z,97445.88
2023-08-31T08:12:25.001Z,97442.97
2023-08-31T08:15:27.275Z,97434.97
2023-08-31T08:18:29.470Z,97446.38
2023-08-31T08:21:34.444Z,97439.09
2023-08-31T08:24:36.979Z,97435.34
2023-08-31T08:27:39.434Z,97425.19
2023-08-31T08:30:41.849Z,97429.19
2023-08-31T08:33:44.225Z,97430.69
2023-08-31T08:36:46.517Z,97438.91
2023-08-31T08:40:12.848Z,97420.25
2023-08-31T08:43:36.854Z,97464.84
2023-08-31T08:46:43.233Z,97455.25
2023-08-31T08:49:49.652Z,97455.34
2023-08-31T08:52:53.988Z,97458.47
2023-08-31T08:55:56.428Z,97460.31
2023-08-31T08:58:59.076Z,97467.66
2023-08-31T09:02:01.575Z,97467.47
2023-08-31T09:05:05.190Z,97464.88
2023-08-31T09:08:13.887Z,97471.69
2023-08-31T09:11:25.371Z,97447.88
2023-08-31T09:14:27.957Z,97463.19
2023-08-31T09:17:45.722Z,97467.00
2023-08-31T09:20:48.795Z,97467.00
2023-08-31T09:23:59.974Z,97488.97
2023-08-31T09:27:02.359Z,97489.44
2023-08-31T09:30:27.417Z,97469.06
2023-08-31T09:33:40.275Z,97488.06
2023-08-31T09:36:47.385Z,97503.03
2023-08-31T09:39:52.269Z,97494.16
2023-08-31T09:42:55.753Z,97506.47
2023-08-31T09:45:59.707Z,97505.75
2023-08-31T09:49:03.017Z,97511.06
2023-08-31T09:52:13.023Z,97520.75
2023-08-31T09:55:20.906Z,97503.06
2023-08-31T09:58:24.749Z,97486.06
2023-08-31T10:01:29.891Z,97489.34
2023-08-31T10:04:37.127Z,97504.81
2023-08-31T10:07:49.262Z,97493.00
2023-08-31T10:10:54.731Z,97503.16
2023-08-31T10:13:58.573Z,97502.47
2023-08-31T10:17:02.952Z,97511.06
2023-08-31T10:20:06.181Z,97529.97
2023-08-31T10:23:09.360Z,97508.31
2023-08-31T10:26:11.789Z,97561.41
2023-08-31T10:29:31.886Z,97565.31
2023-08-31T10:32:34.271Z,97583.78
2023-08-31T10:35:44.674Z,97560.25
2023-08-31T10:38:58.893Z,97550.06
2023-08-31T10:42:08.001Z,97551.84
2023-08-31T10:45:10.912Z,97555.66
2023-08-31T10:48:14.233Z,97548.66
2023-08-31T10:51:22.339Z,97531.16
2023-08-31T10:54:27.209Z,97551.34
2023-08-31T10:57:33.158Z,97551.97
2023-08-31T11:00:54.608Z,97552.56
2023-08-31T11:04:08.919Z,97568.66
2023-08-31T11:07:22.230Z,97551.44
2023-08-31T11:10:29.146Z,97544.94
2023-08-31T11:13:32.223Z,97558.19
2023-08-31T11:16:34.606Z,97558.97
2023-08-31T11:19:37.720Z,97559.78
2023-08-31T11:22:42.671Z,97519.78
2023-08-31T11:25:45.490Z,97565.22
2023-08-31T11:28:47.871Z,97563.47
2023-08-31T11:32:15.021Z,97551.44
2023-08-31T11:35:59.588Z,97554.19
2023-08-31T11:39:07.789Z,97569.69
2023-08-31T11:42:26.051Z,97586.13
2023-08-31T11:45:31.299Z,97578.03
2023-08-31T11:48:35.804Z,97582.47
2023-08-31T11:51:40.575Z,97574.78
2023-08-31T11:54:47.915Z,97579.78
2023-08-31T12:01:22.322Z,97595.78
2023-08-31T12:04:24.717Z,97583.56
2023-08-31T12:07:27.075Z,97596.28
2023-08-31T12:10:29.348Z,97585.38
2023-08-31T12:13:31.770Z,97594.44
2023-08-31T12:16:38.083Z,97612.75
2023-08-31T12:19:40.874Z,97606.31
2023-08-31T12:22:43.092Z,97601.34
2023-08-31T12:25:56.280Z,97596.53
2023-08-31T12:28:58.830Z,97603.25
2023-08-31T12:32:01.241Z,97606.66
2023-08-31T12:35:04.850Z,97599.47
2023-08-31T12:38:07.133Z,97588.75
2023-08-31T12:41:10.560Z,97597.84
2023-08-31T12:44:12.978Z,97597.53
2023-08-31T12:47:15.850Z,97594.63
2023-08-31T12:50:18.504Z,97595.16
2023-08-31T12:53:24.415Z,97589.53
2023-08-31T12:56:27.831Z,97597.41
2023-08-31T12:59:30.267Z,97592.72
2023-08-31T13:02:32.638Z,97595.50
2023-08-31T13:05:35.222Z,97598.28
2023-08-31T13:08:37.571Z,97581.53
2023-08-31T13:11:40.065Z,97588.59
2023-08-31T13:14:42.363Z,97584.78
2023-08-31T13:17:44.774Z,97585.81
2023-08-31T13:20:51.824Z,97584.22
2023-08-31T13:23:54.542Z,97578.22
2023-08-31T13:26:57.069Z,97579.31
2023-08-31T13:29:59.261Z,97586.03
2023-08-31T13:33:02.145Z,97592.22
2023-08-31T13:36:05.186Z,97598.31
2023-08-31T13:39:08.514Z,97589.72
2023-08-31T13:42:10.898Z,97586.13
2023-08-31T13:45:13.190Z,97583.03
2023-08-31T13:48:15.672Z,97583.78
2023-08-31T13:51:21.961Z,97579.94
2023-08-31T13:54:25.528Z,97589.06
2023-08-31T13:57:29.056Z,97598.22
2023-08-31T14:00:33.385Z,97593.09
2023-08-31T14:03:58.434Z,97585.88
2023-08-31T14:07:07.390Z,97583.56
2023-08-31T14:10:18.980Z,97587.94
2023-08-31T14:13:37.466Z,97585.88
2023-08-31T14:16:44.114Z,97592.47
2023-08-31T14:19:46.689Z,97577.81
2023-08-31T14:22:58.174Z,97601.22
2023-08-31T14:26:07.409Z,97587.81
2023-08-31T14:29:12.868Z,97600.22
2023-08-31T14:32:44.451Z,97599.00
2023-08-31T14:36:23.121Z,97582.47
2023-08-31T14:39:51.114Z,97591.78
2023-08-31T14:42:56.333Z,97586.59
2023-08-31T14:46:05.560Z,97577.13
2023-08-31T14:49:08.666Z,97592.25
2023-08-31T14:52:11.960Z,97590.75
2023-08-31T14:55:14.970Z,97596.25
2023-08-31T14:58:17.782Z,97589.09
2023-08-31T15:01:21.428Z,97598.47
2023-08-31T15:04:24.182Z,97589.88
2023-08-31T15:07:27.636Z,97603.59
2023-08-31T15:10:30.902Z,97606.50
2023-08-31T15:13:33.752Z,97611.69
2023-08-31T15:16:38.905Z,97611.41
2023-08-31T15:19:41.875Z,97625.09
2023-08-31T15:22:44.944Z,97614.19
2023-08-31T15:25:48.835Z,97619.28
2023-08-31T15:28:53.254Z,97621.88
2023-08-31T15:31:56.755Z,97626.88
2023-08-31T15:34:59.797Z,97632.66
2023-08-31T15:38:05.201Z,97625.38
2023-08-31T15:41:09.410Z,97627.06
2023-08-31T15:44:11.929Z,97633.28
2023-08-31T15:47:14.751Z,97636.06
2023-08-31T15:50:17.825Z,97637.53
2023-08-31T15:53:20.635Z,97636.78
2023-08-31T15:56:22.909Z,97640.63
2023-08-31T15:59:26.328Z,97645.19
2023-08-31T16:03:04.191Z,97645.47
2023-08-31T16:06:15.674Z,97640.88
2023-08-31T16:09:18.956Z,97637.44
2023-08-31T16:12:21.976Z,97640.09
2023-08-31T16:15:29.266Z,97646.00
2023-08-31T16:18:32.338Z,97649.59
2023-08-31T16:21:35.140Z,97652.28
2023-08-31T16:24:38.337Z,97654.03
2023-08-31T16:27:41.560Z,97635.00
2023-08-31T16:30:48.848Z,97645.84
2023-08-31T16:33:51.993Z,97656.78
2023-08-31T16:36:54.959Z,97647.44
2023-08-31T16:39:57.826Z,97645.03
2023-08-31T16:43:02.270Z,97647.38
2023-08-31T16:46:06.381Z,97645.41
2023-08-31T16:49:09.280Z,97648.41
2023-08-31T16:52:12.827Z,97655.19
2023-08-31T16:55:16.007Z,97641.91
2023-08-31T16:58:18.826Z,97643.31
2023-08-31T17:01:49.489Z,97626.53
2023-08-31T17:05:23.428Z,97645.38
2023-08-31T17:08:38.812Z,97669.09
2023-08-31T17:11:43.254Z,97661.88
2023-08-31T17:14:51.670Z,97659.47
2023-08-31T17:17:58.765Z,97653.06
2023-08-31T17:21:12.440Z,97644.00
2023-08-31T17:24:40.431Z,97632.81
2023-08-31T17:28:17.743Z,97665.81
2023-08-31T17:31:52.886Z,97664.72
2023-08-31T17:35:19.294Z,97677.16
2023-08-31T17:38:35.304Z,97678.28
2023-08-31T17:41:41.058Z,97682.69
2023-08-31T17:44:47.555Z,97668.13
2023-08-31T17:48:18.754Z,97694.66
2023-08-31T17:51:25.190Z,97696.47
2023-08-31T17:54:28.446Z,97705.97
2023-08-31T17:57:40.426Z,97698.56
2023-08-31T18:00:45.632Z,97713.81
2023-08-31T18:03:49.993Z,97720.53
2023-08-31T18:07:03.062Z,97727.28
2023-08-31T18:10:06.455Z,97730.50
2023-08-31T18:13:12.374Z,97729.75
2023-08-31T18:16:15.701Z,97734.38
2023-08-31T18:19:21.637Z,97733.84
2023-08-31T18:22:25.225Z,97743.28
2023-08-31T18:25:29.656Z,97744.94
2023-08-31T18:28:35.192Z,97746.81
2023-08-31T18:31:44.129Z,97742.25
2023-08-31T18:34:56.611Z,97744.41
2023-08-31T18:38:07.637Z,97746.00
2023-08-31T18:41:14.819Z,97756.97
2023-08-31T18:44:23.210Z,97752.38
2023-08-31T18:47:26.899Z,97756.34
2023-08-31T18:50:48.061Z,97756.31
2023-08-31T18:53:51.636Z,97751.44
2023-08-31T18:56:55.487Z,97758.63
2023-08-31T19:00:05.301Z,97757.81
2023-08-31T19:03:16.106Z,97748.38
2023-08-31T19:06:25.052Z,97757.00
2023-08-31T19:09:33.029Z,97762.31
2023-08-31T19:12:37.750Z,97754.22
2023-08-31T19:15:43.515Z,97755.00
2023-08-31T19:18:51.088Z,97755.53
2023-08-31T19:21:57.418Z,97757.97
2023-08-31T19:25:04.012Z,97762.25
2023-08-31T19:28:08.029Z,97746.00
2023-08-31T19:31:15.185Z,97769.25
2023-08-31T19:34:30.453Z,97763.84
2023-08-31T19:37:35.124Z,97770.19
2023-08-31T19:40:54.830Z,97774.34
2023-08-31T19:44:36.214Z,97776.69
2023-08-31T19:48:04.298Z,97783.84
2023-08-31T19:51:10.453Z,97780.84
2023-08-31T19:54:17.851Z,97757.16
2023-08-31T19:57:24.782Z,97785.78
2023-08-31T20:00:32.022Z,97779.28
2023-08-31T20:03:45.167Z,97769.34
2023-08-31T20:06:48.821Z,97779.97
2023-08-31T20:09:56.999Z,97778.31
2023-08-31T20:13:04.921Z,97780.69
2023-08-31T20:16:14.199Z,97783.31
2023-08-31T20:19:25.883Z,97778.44
2023-08-31T20:22:29.294Z,97791.25
2023-08-31T20:25:40.602Z,97792.81
2023-08-31T20:28:45.885Z,97807.22
2023-08-31T20:31:49.654Z,97797.59
2023-08-31T20:34:57.584Z,97753.41
2023-08-31T20:38:02.208Z,97801.50
2023-08-31T20:41:06.202Z,97815.28
2023-08-31T20:44:11.322Z,97808.25
2023-08-31T20:47:17.744Z,97806.34
2023-08-31T20:50:22.751Z,97809.19
2023-08-31T20:53:32.281Z,97810.19
2023-08-31T20:56:37.411Z,97817.84
2023-08-31T20:59:46.084Z,97818.56
2023-08-31T21:02:56.117Z,97792.66
2023-08-31T21:06:04.651Z,97825.38
2023-08-31T21:09:14.492Z,97816.75
2023-08-31T21:12:19.035Z,97824.16
2023-08-31T21:15:27.873Z,97825.47
2023-08-31T21:18:35.413Z,97819.81
2023-08-31T21:21:37.822Z,97824.59
2023-08-31T21:24:43.788Z,97828.06
2023-08-31T21:27:53.470Z,97837.69
2023-08-31T21:31:04.454Z,97816.28
2023-08-31T21:34:16.501Z,97818.69
2023-08-31T21:37:20.108Z,97820.81
2023-08-31T21:40:23.802Z,97833.09
2023-08-31T21:43:31.943Z,97833.63
2023-08-31T21:46:35.696Z,97833.72
2023-08-31T21:49:38.215Z,97826.84
2023-08-31T21:52:41.380Z,97832.56
2023-08-31T21:55:45.267Z,97843.06
2023-08-31T21:58:48.946Z,97842.59
2023-08-31T22:01:52.654Z,97839.44
2023-08-31T22:04:56.070Z,97846.94
2023-08-31T22:08:00.974Z,97844.63
2023-08-31T22:11:08.040Z,97851.91
2023-08-31T22:14:12.364Z,97845.03
2023-08-31T22:17:17.356Z,97850.66
2023-08-31T22:20:21.255Z,97848.06
2023-08-31T22:23:25.640Z,97847.03
2023-08-31T22:26:28.634Z,97856.72
2023-08-31T22:29:31.371Z,97854.91
2023-08-31T22:32:34.903Z,97865.66
2023-08-31T22:35:37.876Z,97866.53
2023-08-31T22:38:40.584Z,97859.38
2023-08-31T22:41:46.045Z,97831.53
2023-08-31T22:44:49.380Z,97855.28
2023-08-31T22:47:52.056Z,97864.47
2023-08-31T22:51:08.059Z,97858.94
2023-08-31T22:54:10.718Z,97841.00
2023-08-31T22:57:14.056Z,97859.94
2023-08-31T23:00:16.791Z,97865.63
2023-08-31T23:03:21.457Z,97861.69
2023-08-31T23:06:24.226Z,97873.31
2023-08-31T23:09:28.593Z,97861.78
2023-08-31T23:12:31.061Z,97852.38
2023-08-31T23:15:34.131Z,97868.03
2023-08-31T23:18:37.669Z,97861.09
2023-08-31T23:21:45.861Z,97867.84
2023-08-31T23:24:51.842Z,97862.88
2023-08-31T23:28:00.079Z,97862.72
2023-08-31T23:31:03.596Z,97854.22
2023-08-31T23:34:07.364Z,97871.69
2023-08-31T23:37:16.320Z,97855.44
2023-08-31T23:40:24.858Z,97865.16
2023-08-31T23:43:33.017Z,97868.94
2023-08-31T23:46:40.920Z,97871.34
2023-08-31T23:49:49.369Z,97842.59
2023-08-31T23:52:57.454Z,97851.72
2023-08-31T23:56:07.505Z,97725.22
2023-08-31T23:59:12.939Z,97850.63
